Time;durP1;ratioP1;P1;durP2;ratioP2;P2;SDS_P1;SDS_P2;PMS_P1;PMS_P2;Temp;Humidity;BMP_temperature;BMP_pressure;BME280_temperature;BME280_humidity;BME280_pressure;Samples;Min_cycle;Max_cycle;Signal;HPM_P1;HPM_P2
2021/09/24 00:01:43;;;;;;;31.70;15.88;;;;;;;8.77;100.00;97043.75;5008920;28;20061;-67
2021/09/24 00:04:31;;;;;;;26.98;15.18;;;;;;;8.80;100.00;97034.88;5009725;28;20072;-65
2021/09/24 00:07:16;;;;;;;28.13;15.82;;;;;;;8.74;100.00;97044.44;5006128;28;20037;-66
2021/09/24 00:10:06;;;;;;;28.65;15.98;;;;;;;8.70;100.00;97040.03;4996948;28;20076;-64
2021/09/24 00:12:52;;;;;;;24.60;14.52;;;;;;;8.78;100.00;97045.31;4998000;28;20042;-66
2021/09/24 00:15:37;;;;;;;25.38;14.60;;;;;;;8.77;100.00;97042.97;4998909;28;20411;-66
2021/09/24 00:18:23;;;;;;;27.25;14.27;;;;;;;8.71;100.00;97041.59;4996409;28;20160;-66
2021/09/24 00:21:09;;;;;;;24.95;14.27;;;;;;;8.55;100.00;97045.06;5002568;28;20088;-66
2021/09/24 00:23:54;;;;;;;25.13;14.90;;;;;;;8.67;100.00;97040.72;5009357;28;20045;-63
2021/09/24 00:26:40;;;;;;;24.50;13.70;;;;;;;8.73;100.00;97045.59;4997868;28;20068;-64
2021/09/24 00:29:26;;;;;;;22.38;13.20;;;;;;;8.91;100.00;97053.47;4994516;28;20049;-68
2021/09/24 00:32:11;;;;;;;21.73;12.00;;;;;;;8.92;100.00;97053.13;5020454;28;20077;-68
2021/09/24 00:34:57;;;;;;;25.10;13.52;;;;;;;8.96;100.00;97047.78;5018018;28;20498;-68
2021/09/24 00:37:43;;;;;;;22.13;12.93;;;;;;;8.91;100.00;97054.31;4999971;28;20533;-66
2021/09/24 00:40:32;;;;;;;22.95;13.65;;;;;;;8.76;100.00;97044.09;4998969;28;20125;-67
2021/09/24 00:43:18;;;;;;;21.92;12.48;;;;;;;8.75;100.00;97045.22;4994150;28;20531;-66
2021/09/24 00:46:04;;;;;;;27.38;13.95;;;;;;;8.77;100.00;97046.47;4996423;28;20414;-65
2021/09/24 00:48:50;;;;;;;22.27;13.18;;;;;;;8.82;100.00;97045.44;4994749;28;20042;-67
2021/09/24 00:51:36;;;;;;;24.45;12.65;;;;;;;8.83;100.00;97046.25;4998263;28;20038;-66
2021/09/24 00:54:22;;;;;;;22.27;13.02;;;;;;;8.77;100.00;97045.69;4994733;28;20509;-66
2021/09/24 00:57:08;;;;;;;22.30;12.50;;;;;;;8.73;100.00;97044.78;5031462;23;20049;-63
2021/09/24 00:59:53;;;;;;;21.60;11.95;;;;;;;8.72;100.00;97048.66;5026538;28;20075;-64
2021/09/24 01:02:39;;;;;;;21.70;11.90;;;;;;;8.71;100.00;97036.94;5015395;28;20128;-63
2021/09/24 01:05:25;;;;;;;23.13;11.45;;;;;;;8.65;100.00;97034.81;5011390;28;20629;-64
2021/09/24 01:08:11;;;;;;;18.60;11.20;;;;;;;8.53;100.00;97022.75;4993256;28;20656;-64
2021/09/24 01:10:56;;;;;;;23.13;12.95;;;;;;;8.45;100.00;97010.06;5015451;28;20453;-64
2021/09/24 01:13:42;;;;;;;20.83;12.00;;;;;;;8.28;100.00;97029.38;5013227;28;20076;-64
2021/09/24 01:16:28;;;;;;;21.17;11.38;;;;;;;8.03;100.00;97027.47;5013968;28;20041;-64
2021/09/24 01:19:13;;;;;;;21.80;12.95;;;;;;;7.85;100.00;97029.63;5015664;28;20037;-66
2021/09/24 01:21:59;;;;;;;21.30;12.00;;;;;;;8.02;100.00;97028.59;5038448;28;20021;-65
2021/09/24 01:24:45;;;;;;;18.23;10.98;;;;;;;8.07;100.00;97030.31;5016654;28;20585;-64
2021/09/24 01:27:31;;;;;;;21.27;11.98;;;;;;;8.06;100.00;97019.75;5016897;28;20572;-61
2021/09/24 01:30:18;;;;;;;24.13;12.60;;;;;;;8.06;100.00;97023.25;5011067;28;20049;-64
2021/09/24 01:33:04;;;;;;;21.88;11.98;;;;;;;7.97;100.00;97023.38;5013329;28;20049;-64
2021/09/24 01:35:50;;;;;;;24.13;12.70;;;;;;;7.67;100.00;97033.72;5018524;28;20042;-63
2021/09/24 01:38:36;;;;;;;23.08;12.27;;;;;;;7.75;100.00;97026.56;5017307;28;20038;-61
2021/09/24 01:41:21;;;;;;;24.10;13.15;;;;;;;7.89;100.00;97021.56;5014173;28;20657;-61
2021/09/24 01:44:07;;;;;;;21.90;12.38;;;;;;;8.00;100.00;97006.34;5014549;28;20037;-64
2021/09/24 01:46:53;;;;;;;20.40;12.88;;;;;;;7.94;100.00;97001.44;5018177;28;20308;-65
2021/09/24 01:49:39;;;;;;;28.63;13.15;;;;;;;7.83;100.00;97006.56;5018644;28;20041;-65
2021/09/24 01:52:25;;;;;;;24.70;13.43;;;;;;;7.74;100.00;97012.16;5012612;28;20037;-63
2021/09/24 01:55:11;;;;;;;24.83;13.65;;;;;;;7.46;100.00;97012.78;5014546;28;20367;-65
2021/09/24 01:57:57;;;;;;;21.55;12.00;;;;;;;7.61;100.00;97007.81;5015725;28;20046;-61
2021/09/24 02:00:42;;;;;;;23.33;12.80;;;;;;;7.74;100.00;96997.69;5015012;28;20107;-65
2021/09/24 02:03:28;;;;;;;26.15;13.85;;;;;;;7.82;100.00;96999.53;5012242;28;20076;-65
2021/09/24 02:06:14;;;;;;;23.58;12.30;;;;;;;7.85;100.00;97005.09;5010416;28;20095;-65
2021/09/24 02:09:00;;;;;;;23.05;14.32;;;;;;;7.80;100.00;96994.41;5017857;28;20038;-60
2021/09/24 02:11:45;;;;;;;27.10;14.50;;;;;;;7.76;100.00;96998.16;5018736;28;20068;-64
2021/09/24 02:14:32;;;;;;;23.08;12.82;;;;;;;7.78;100.00;97004.88;5015683;28;20529;-63
2021/09/24 02:17:18;;;;;;;21.45;12.27;;;;;;;7.97;100.00;97015.19;5010665;28;20056;-63
2021/09/24 02:20:05;;;;;;;23.70;12.07;;;;;;;8.04;100.00;97015.41;5013720;28;20068;-65
2021/09/24 02:22:50;;;;;;;21.42;13.05;;;;;;;8.22;100.00;97009.72;5014896;28;20482;-61
2021/09/24 02:25:36;;;;;;;22.40;12.80;;;;;;;8.44;100.00;97010.38;5034606;28;20045;-63
2021/09/24 02:28:22;;;;;;;24.77;13.55;;;;;;;8.39;100.00;97009.47;5030813;28;20140;-61
2021/09/24 02:31:10;;;;;;;26.42;14.65;;;;;;;8.32;100.00;97014.72;5030750;28;20064;-62
2021/09/24 02:33:56;;;;;;;21.15;12.75;;;;;;;8.34;100.00;97004.25;5036134;28;20037;-62
2021/09/24 02:36:42;;;;;;;24.10;12.55;;;;;;;8.55;100.00;97003.31;5035403;28;20040;-60
2021/09/24 02:39:27;;;;;;;23.55;13.77;;;;;;;8.61;100.00;97004.66;5031509;28;20037;-64
2021/09/24 02:42:13;;;;;;;21.80;12.52;;;;;;;8.71;100.00;97003.38;5030177;28;20045;-59
2021/09/24 02:44:59;;;;;;;20.13;11.60;;;;;;;8.74;100.00;96998.00;5035356;28;20041;-62
2021/09/24 02:47:45;;;;;;;18.85;11.20;;;;;;;8.65;100.00;96991.91;5036496;28;20094;-63
2021/09/24 02:50:30;;;;;;;19.42;11.38;;;;;;;8.35;100.00;96989.44;5021915;28;20044;-62
2021/09/24 02:53:16;;;;;;;20.08;11.45;;;;;;;8.19;100.00;96994.84;5029297;28;20040;-61
2021/09/24 02:56:02;;;;;;;28.38;13.18;;;;;;;8.09;100.00;96995.31;5034858;28;20040;-64
2021/09/24 02:58:48;;;;;;;27.17;12.57;;;;;;;8.02;100.00;96998.59;5047533;28;20041;-65
2021/09/24 03:01:34;;;;;;;20.13;12.00;;;;;;;8.14;100.00;96999.72;5045199;28;20071;-64
2021/09/24 03:04:20;;;;;;;23.00;11.20;;;;;;;8.23;100.00;97003.13;5041949;28;20040;-64
2021/09/24 03:07:06;;;;;;;19.15;11.05;;;;;;;8.38;100.00;96982.50;5042599;28;20036;-64
2021/09/24 03:09:52;;;;;;;20.88;11.77;;;;;;;8.52;100.00;96988.41;5052977;28;20478;-64
2021/09/24 03:12:38;;;;;;;19.73;11.20;;;;;;;8.54;100.00;96986.13;5050998;28;20060;-64
2021/09/24 03:15:23;;;;;;;20.48;11.40;;;;;;;8.50;100.00;96982.50;5050130;28;20041;-63
2021/09/24 03:18:09;;;;;;;20.42;11.02;;;;;;;8.56;100.00;96978.38;5035114;28;20048;-63
2021/09/24 03:20:55;;;;;;;20.20;10.95;;;;;;;8.74;100.00;96978.88;5050803;28;20067;-62
2021/09/24 03:23:40;;;;;;;18.73;10.32;;;;;;;8.76;100.00;96976.59;5049750;28;20033;-61
2021/09/24 03:26:26;;;;;;;18.15;10.50;;;;;;;8.64;100.00;96968.47;5031340;28;20037;-64
2021/09/24 03:29:12;;;;;;;20.65;10.65;;;;;;;8.57;100.00;96970.97;5004748;28;20037;-64
2021/09/24 03:31:58;;;;;;;20.48;10.70;;;;;;;8.60;100.00;96982.00;5013047;28;20046;-64
2021/09/24 03:34:44;;;;;;;15.60;10.02;;;;;;;8.72;100.00;96983.13;5003222;28;20529;-62
2021/09/24 03:37:30;;;;;;;22.55;10.95;;;;;;;8.68;100.00;96972.09;5013925;28;20049;-63
2021/09/24 03:40:16;;;;;;;17.30;9.57;;;;;;;8.65;100.00;96964.59;5006219;28;20554;-64
2021/09/24 03:43:02;;;;;;;15.75;10.23;;;;;;;8.55;100.00;96974.09;5007420;28;20042;-65
2021/09/24 03:45:48;;;;;;;15.95;9.23;;;;;;;8.39;100.00;96981.34;5015666;28;20112;-63
2021/09/24 03:48:34;;;;;;;18.70;11.07;;;;;;;8.50;100.00;96971.59;5015042;28;20044;-64
2021/09/24 03:51:19;;;;;;;16.98;9.65;;;;;;;8.58;100.00;96972.59;5006841;28;20033;-61
2021/09/24 03:54:06;;;;;;;19.08;10.07;;;;;;;8.60;100.00;96973.81;5006158;28;20417;-63
2021/09/24 03:56:51;;;;;;;16.85;10.45;;;;;;;8.55;100.00;96979.53;5018529;28;20037;-63
2021/09/24 03:59:37;;;;;;;16.30;10.35;;;;;;;8.53;100.00;96973.63;5018715;28;20073;-61
2021/09/24 04:02:22;;;;;;;16.80;10.15;;;;;;;8.55;100.00;96973.28;5003130;28;20525;-62
2021/09/24 04:05:08;;;;;;;16.50;9.75;;;;;;;8.60;100.00;96984.75;4995483;28;20649;-61
2021/09/24 04:07:54;;;;;;;15.70;9.70;;;;;;;8.50;100.00;96981.69;5019277;28;20045;-63
2021/09/24 04:10:41;;;;;;;19.83;10.77;;;;;;;8.49;100.00;96985.59;5018994;28;20453;-65
2021/09/24 04:13:27;;;;;;;19.92;10.73;;;;;;;8.41;100.00;96979.88;5012466;28;20048;-61
2021/09/24 04:16:13;;;;;;;18.73;9.15;;;;;;;8.34;100.00;96984.34;5013804;28;20047;-66
2021/09/24 04:18:59;;;;;;;23.60;10.82;;;;;;;8.34;100.00;96987.88;5018142;28;20041;-65
2021/09/24 04:21:44;;;;;;;19.10;11.27;;;;;;;8.37;100.00;96989.09;5016972;28;20705;-64
2021/09/24 04:24:30;;;;;;;18.55;10.98;;;;;;;8.29;100.00;96990.03;5016982;28;20140;-63
2021/09/24 04:27:16;;;;;;;20.00;11.00;;;;;;;8.15;100.00;96991.19;5010034;28;20029;-65
2021/09/24 04:30:04;;;;;;;16.60;9.63;;;;;;;8.15;100.00;96990.41;5009060;28;20038;-65
2021/09/24 04:32:50;;;;;;;19.38;10.30;;;;;;;8.13;100.00;96979.81;5005265;28;20589;-66
2021/09/24 04:35:36;;;;;;;17.42;10.88;;;;;;;8.12;100.00;96982.91;5017091;28;20080;-64
2021/09/24 04:38:21;;;;;;;26.25;12.15;;;;;;;7.92;100.00;96979.16;4998830;28;20648;-65
2021/09/24 04:41:07;;;;;;;19.90;11.13;;;;;;;7.86;100.00;96984.06;5003447;28;20036;-64
2021/09/24 04:43:53;;;;;;;18.50;11.32;;;;;;;7.78;100.00;96979.53;5022306;28;20041;-65
2021/09/24 04:46:38;;;;;;;17.52;10.32;;;;;;;7.72;100.00;96968.03;5014039;28;20049;-66
2021/09/24 04:49:24;;;;;;;19.00;10.55;;;;;;;7.85;100.00;96968.84;5014410;28;20148;-63
2021/09/24 04:52:10;;;;;;;19.65;11.18;;;;;;;7.78;100.00;96972.16;4997941;28;20084;-65
2021/09/24 04:54:55;;;;;;;18.35;11.15;;;;;;;7.73;100.00;96972.38;5015242;28;20047;-61
2021/09/24 04:57:41;;;;;;;21.00;11.52;;;;;;;7.85;100.00;96968.84;5017558;28;20152;-63
2021/09/24 05:00:27;;;;;;;23.15;10.82;;;;;;;7.95;100.00;96975.75;5006831;28;20047;-65
2021/09/24 05:03:13;;;;;;;19.90;10.45;;;;;;;8.24;100.00;96977.41;5012358;28;20398;-64
2021/09/24 05:05:59;;;;;;;16.80;9.93;;;;;;;8.36;100.00;96976.59;5016719;28;20038;-65
2021/09/24 05:08:45;;;;;;;16.88;10.30;;;;;;;8.30;100.00;96984.25;5017194;28;20041;-65
2021/09/24 05:11:30;;;;;;;16.73;9.93;;;;;;;8.33;100.00;96997.19;5009701;28;20049;-63
2021/09/24 05:14:16;;;;;;;20.40;10.00;;;;;;;8.28;100.00;96994.69;5011444;28;20049;-63
2021/09/24 05:17:02;;;;;;;17.50;9.15;;;;;;;8.26;100.00;97004.38;5014843;28;20049;-65
2021/09/24 05:19:48;;;;;;;19.08;10.80;;;;;;;8.28;100.00;96996.63;5017239;28;20531;-63
2021/09/24 05:22:33;;;;;;;18.05;10.60;;;;;;;8.29;100.00;96999.00;5017588;28;20056;-65
2021/09/24 05:25:21;;;;;;;21.17;10.65;;;;;;;8.41;100.00;97000.94;5012729;28;20046;-65
2021/09/24 05:28:07;;;;;;;21.05;11.68;;;;;;;8.50;100.00;96992.63;5003542;28;20065;-66
2021/09/24 05:30:53;;;;;;;18.48;10.50;;;;;;;8.57;100.00;96999.09;5003156;28;20050;-63
2021/09/24 05:33:38;;;;;;;21.30;11.23;;;;;;;8.65;100.00;96994.63;5004310;28;20049;-65
2021/09/24 05:36:24;;;;;;;27.75;11.73;;;;;;;8.76;100.00;96997.66;5008279;28;21017;-64
2021/09/24 05:39:10;;;;;;;26.70;12.57;;;;;;;8.78;100.00;96996.16;5009249;28;20120;-63
2021/09/24 05:41:55;;;;;;;33.63;12.60;;;;;;;8.59;100.00;96998.75;5016531;28;20053;-65
2021/09/24 05:44:42;;;;;;;30.75;13.80;;;;;;;8.56;100.00;97000.22;4996317;28;20041;-63
2021/09/24 05:47:27;;;;;;;26.08;12.07;;;;;;;8.55;100.00;97003.31;5000497;28;20045;-65
2021/09/24 05:50:14;;;;;;;27.33;13.55;;;;;;;8.70;100.00;97001.78;5026330;28;20043;-66
2021/09/24 05:53:02;;;;;;;28.75;12.98;;;;;;;8.89;100.00;97006.59;5024936;28;20045;-65
2021/09/24 05:55:47;;;;;;;35.13;15.93;;;;;;;8.77;100.00;97000.06;5020838;28;20132;-64
2021/09/24 05:58:33;;;;;;;38.67;15.77;;;;;;;8.95;100.00;97002.50;5011590;28;20048;-63
2021/09/24 06:01:19;;;;;;;32.47;14.00;;;;;;;9.22;100.00;96994.59;5014199;28;20041;-63
2021/09/24 06:04:05;;;;;;;33.97;15.13;;;;;;;9.52;100.00;96986.78;5008956;28;20106;-65
2021/09/24 06:06:50;;;;;;;35.83;15.73;;;;;;;9.53;100.00;96993.84;5016461;28;20045;-63
2021/09/24 06:09:36;;;;;;;29.83;14.85;;;;;;;9.55;100.00;96997.03;5015141;28;20046;-65
2021/09/24 06:12:22;;;;;;;32.33;15.45;;;;;;;9.64;100.00;96997.63;5005711;28;20233;-64
2021/09/24 06:15:08;;;;;;;36.05;15.30;;;;;;;9.71;100.00;97000.53;5015527;28;20041;-64
2021/09/24 06:17:53;;;;;;;26.23;14.05;;;;;;;9.97;100.00;96987.47;5019849;28;20132;-63
2021/09/24 06:20:39;;;;;;;28.15;12.52;;;;;;;10.35;100.00;96994.22;5022343;28;20037;-63
2021/09/24 06:23:25;;;;;;;26.90;13.32;;;;;;;10.64;100.00;96992.88;5016102;28;20057;-62
2021/09/24 06:26:11;;;;;;;20.60;11.05;;;;;;;10.92;100.00;96989.91;5015202;28;20075;-65
2021/09/24 06:28:57;;;;;;;24.10;12.20;;;;;;;11.06;100.00;96992.16;5016803;28;20103;-65
2021/09/24 06:31:43;;;;;;;25.13;10.77;;;;;;;11.02;100.00;96988.53;5023391;28;20396;-64
2021/09/24 06:34:28;;;;;;;29.90;12.63;;;;;;;10.81;100.00;96995.19;5013706;28;20056;-65
2021/09/24 06:37:15;;;;;;;23.95;12.70;;;;;;;10.76;100.00;96998.22;5012886;28;20045;-68
2021/09/24 06:40:02;;;;;;;27.17;13.43;;;;;;;11.34;100.00;97002.84;5015046;28;20099;-64
2021/09/24 06:42:48;;;;;;;22.75;12.38;;;;;;;11.19;100.00;97010.00;4996664;28;20045;-64
2021/09/24 06:45:33;;;;;;;19.67;11.65;;;;;;;11.90;100.00;97011.63;5010294;28;20050;-64
2021/09/24 06:48:19;;;;;;;21.02;11.50;;;;;;;12.74;100.00;97007.75;5009762;28;20041;-61
2021/09/24 06:51:06;;;;;;;21.20;11.07;;;;;;;13.12;96.46;97007.81;5010138;28;20049;-65
2021/09/24 06:53:52;;;;;;;21.67;10.57;;;;;;;13.35;94.68;97007.72;5011908;28;20041;-64
2021/09/24 06:56:40;;;;;;;22.10;10.75;;;;;;;13.31;96.26;97013.16;5012508;28;20515;-64
2021/09/24 06:59:26;;;;;;;22.80;12.57;;;;;;;13.02;99.38;97020.28;5010837;28;20045;-65
2021/09/24 07:02:12;;;;;;;27.02;12.82;;;;;;;12.83;100.00;97012.97;5010231;28;20517;-64
2021/09/24 07:04:58;;;;;;;30.08;15.43;;;;;;;12.30;100.00;97013.84;5014693;28;21330;-64
2021/09/24 07:07:44;;;;;;;25.63;13.70;;;;;;;11.89;100.00;97018.28;4990367;28;20085;-65
2021/09/24 07:10:30;;;;;;;32.83;15.27;;;;;;;11.76;100.00;97014.94;5011345;28;20049;-66
2021/09/24 07:13:16;;;;;;;31.58;14.52;;;;;;;11.97;100.00;97023.53;5002007;28;20056;-65
2021/09/24 07:16:02;;;;;;;28.83;15.32;;;;;;;12.56;100.00;97026.75;5005709;28;20100;-64
2021/09/24 07:18:48;;;;;;;23.30;12.90;;;;;;;13.21;100.00;97019.31;5000390;28;20406;-64
2021/09/24 07:21:34;;;;;;;23.08;12.65;;;;;;;13.70;100.00;97021.03;5002411;28;20111;-65
2021/09/24 07:24:20;;;;;;;20.20;12.50;;;;;;;13.96;100.00;97033.84;5009104;28;20078;-66
2021/09/24 07:27:06;;;;;;;20.65;12.15;;;;;;;14.42;100.00;97031.81;5011694;28;20045;-65
2021/09/24 07:29:52;;;;;;;20.02;11.73;;;;;;;14.78;100.00;97030.06;5017935;28;20132;-65
2021/09/24 07:32:38;;;;;;;18.25;10.85;;;;;;;15.03;97.97;97032.94;5003307;28;20494;-65
2021/09/24 07:35:23;;;;;;;22.80;11.38;;;;;;;15.32;96.75;97032.25;5012553;28;20123;-65
2021/09/24 07:38:09;;;;;;;20.17;11.52;;;;;;;15.74;95.46;97036.31;5013512;28;20130;-68
2021/09/24 07:40:55;;;;;;;22.40;13.10;;;;;;;15.92;93.69;97041.84;5014157;28;20053;-66
2021/09/24 07:43:42;;;;;;;19.58;11.40;;;;;;;15.61;95.54;97035.88;5014480;28;20049;-66
2021/09/24 07:46:28;;;;;;;20.90;12.52;;;;;;;16.30;90.86;97039.50;5009276;28;20050;-66
2021/09/24 07:49:14;;;;;;;25.55;13.90;;;;;;;16.38;89.54;97035.53;5006573;28;20556;-66
2021/09/24 07:52:00;;;;;;;21.42;13.45;;;;;;;16.29;88.78;97047.00;5013126;28;20124;-65
2021/09/24 07:54:45;;;;;;;24.77;14.55;;;;;;;16.22;90.55;97047.81;5015870;28;20045;-66
2021/09/24 07:57:31;;;;;;;21.52;13.68;;;;;;;16.16;90.09;97046.59;5008909;28;20048;-67
2021/09/24 08:00:17;;;;;;;26.10;15.77;;;;;;;15.59;95.47;97047.31;5006192;28;20062;-67
2021/09/24 08:03:04;;;;;;;29.20;16.48;;;;;;;15.97;93.74;97047.81;5015405;28;20099;-66
2021/09/24 08:05:49;;;;;;;30.35;15.82;;;;;;;16.54;90.02;97049.72;5022109;28;20042;-66
2021/09/24 08:08:35;;;;;;;24.95;16.27;;;;;;;16.70;88.43;97046.53;5016679;28;20057;-67
2021/09/24 08:11:21;;;;;;;26.65;15.85;;;;;;;17.05;86.69;97042.13;5001158;28;20054;-65
2021/09/24 08:14:07;;;;;;;31.08;17.00;;;;;;;16.74;87.13;97044.56;4994249;28;20041;-66
2021/09/24 08:16:53;;;;;;;29.52;17.67;;;;;;;16.90;87.48;97049.69;5015701;28;20179;-66
2021/09/24 08:19:39;;;;;;;25.13;15.00;;;;;;;17.13;86.59;97046.44;5015736;28;20081;-66
2021/09/24 08:22:26;;;;;;;24.52;14.38;;;;;;;17.50;82.99;97049.81;5006015;28;20107;-66
2021/09/24 08:25:15;;;;;;;25.23;14.77;;;;;;;18.52;79.93;97051.47;5005687;28;20049;-66
2021/09/24 08:28:01;;;;;;;27.58;16.13;;;;;;;19.31;74.83;97056.19;4994585;28;20187;-66
2021/09/24 08:30:46;;;;;;;25.23;15.40;;;;;;;18.34;79.90;97062.72;5017099;28;20130;-64
2021/09/24 08:33:32;;;;;;;24.10;14.02;;;;;;;19.78;73.51;97061.16;5009652;28;20073;-63
2021/09/24 08:36:18;;;;;;;25.70;15.35;;;;;;;19.66;72.61;97051.34;5009976;28;20140;-63
2021/09/24 08:39:04;;;;;;;23.88;15.05;;;;;;;19.65;73.08;97058.13;5008371;28;20033;-65
2021/09/24 08:41:49;;;;;;;27.23;15.07;;;;;;;20.50;69.19;97048.91;5018601;28;20122;-64
2021/09/24 08:44:35;;;;;;;23.48;14.63;;;;;;;21.25;65.85;97055.06;4999308;28;20037;-65
2021/09/24 08:47:21;;;;;;;21.05;13.48;;;;;;;21.25;66.05;97046.72;5008607;28;20089;-64
2021/09/24 08:50:09;;;;;;;20.38;13.00;;;;;;;22.12;61.09;97044.41;5014183;28;20064;-64
2021/09/24 08:52:55;;;;;;;20.63;12.82;;;;;;;22.46;61.55;97039.66;5012903;28;21457;-65
2021/09/24 08:55:44;;;;;;;20.60;12.70;;;;;;;22.66;60.62;97036.72;5011277;28;20548;-65
2021/09/24 08:58:29;;;;;;;22.20;12.68;;;;;;;23.55;56.84;97039.06;5005505;28;20132;-64
2021/09/24 09:01:15;;;;;;;25.35;17.38;;;;;;;23.86;55.74;97035.75;5012148;28;20172;-64
2021/09/24 09:04:01;;;;;;;18.58;11.02;;;;;;;24.29;54.45;97034.38;5019519;28;20085;-65
2021/09/24 09:07:02;;;;;;;18.73;11.20;;;;;;;24.94;52.08;97026.59;5020264;28;20595;-64
2021/09/24 09:09:51;;;;;;;15.25;10.88;;;;;;;24.97;51.31;97023.69;5016525;28;20080;-64
2021/09/24 09:12:38;;;;;;;16.77;11.60;;;;;;;24.17;52.45;97019.16;5019753;28;20037;-65
2021/09/24 09:15:23;;;;;;;16.67;10.65;;;;;;;24.85;51.14;97029.31;5012978;28;20641;-63
2021/09/24 09:18:17;;;;;;;17.55;11.18;;;;;;;22.61;57.10;97037.25;5014786;28;20045;-64
2021/09/24 09:21:05;;;;;;;15.95;10.65;;;;;;;23.66;54.63;97031.13;5020741;28;20042;-66
2021/09/24 09:23:54;;;;;;;13.60;9.70;;;;;;;23.94;53.59;97033.50;5022026;28;20450;-64
2021/09/24 09:26:40;;;;;;;16.05;10.82;;;;;;;24.30;53.36;97032.38;5022142;28;20095;-64
2021/09/24 09:29:26;;;;;;;15.82;10.88;;;;;;;24.20;52.72;97026.66;5014799;28;20053;-64
2021/09/24 09:32:12;;;;;;;17.17;9.88;;;;;;;24.57;53.55;97031.88;5016587;28;20088;-63
2021/09/24 09:34:58;;;;;;;15.32;10.63;;;;;;;24.40;52.73;97028.44;5024934;28;20470;-63
2021/09/24 09:37:43;;;;;;;13.82;9.00;;;;;;;24.95;50.94;97026.13;5021202;28;20137;-63
2021/09/24 09:40:29;;;;;;;13.88;9.27;;;;;;;24.85;51.69;97024.50;5014490;28;20048;-63
2021/09/24 09:43:20;;;;;;;12.50;8.75;;;;;;;24.82;51.36;97027.44;5008850;28;20120;-62
2021/09/24 09:46:12;;;;;;;13.82;9.32;;;;;;;25.77;48.64;97035.56;5015471;28;20049;-64
2021/09/24 09:49:01;;;;;;;13.90;9.43;;;;;;;24.96;50.81;97029.72;5020139;28;20052;-63
2021/09/24 09:51:47;;;;;;;15.45;10.52;;;;;;;25.28;49.87;97027.78;5017433;28;20435;-64
2021/09/24 09:54:33;;;;;;;15.45;9.68;;;;;;;26.28;47.96;97021.09;5002179;28;20041;-64
2021/09/24 09:57:20;;;;;;;15.10;9.25;;;;;;;26.84;46.81;97021.19;5013009;28;20041;-64
2021/09/24 10:00:08;;;;;;;15.98;9.65;;;;;;;25.82;48.81;97022.94;5002980;28;20087;-65
2021/09/24 10:03:09;;;;;;;15.70;9.63;;;;;;;25.26;49.76;97031.03;5015838;28;20136;-64
2021/09/24 10:05:55;;;;;;;16.65;11.13;;;;;;;23.24;54.02;97008.81;5022936;28;20059;-65
2021/09/24 10:08:40;;;;;;;13.48;9.00;;;;;;;24.14;54.75;97019.28;5020992;28;20103;-65
2021/09/24 10:11:31;;;;;;;12.30;9.02;;;;;;;25.36;50.97;97015.84;5007194;28;20084;-64
2021/09/24 10:14:17;;;;;;;13.85;9.40;;;;;;;25.83;49.11;97019.69;5014481;28;20053;-63
2021/09/24 10:17:03;;;;;;;16.63;8.88;;;;;;;25.59;49.52;97016.63;5005342;28;20293;-65
2021/09/24 10:19:50;;;;;;;12.90;8.27;;;;;;;26.09;48.86;97019.47;5016738;28;20048;-63
2021/09/24 10:22:36;;;;;;;13.15;9.82;;;;;;;26.23;48.35;97013.28;5018611;28;20871;-66
2021/09/24 10:25:22;;;;;;;11.30;8.35;;;;;;;26.35;47.64;97008.78;5010651;28;20049;-64
2021/09/24 10:28:10;;;;;;;14.55;8.27;;;;;;;26.51;47.20;97002.13;5009064;28;20067;-64
2021/09/24 10:30:58;;;;;;;13.48;9.35;;;;;;;25.84;48.52;97003.63;5021123;28;20037;-63
2021/09/24 10:33:44;;;;;;;11.52;7.88;;;;;;;26.44;46.86;97000.38;5020199;28;20049;-65
2021/09/24 10:36:43;;;;;;;12.05;7.90;;;;;;;25.65;49.04;96997.16;5016133;28;20045;-64
2021/09/24 10:39:28;;;;;;;10.90;7.55;;;;;;;25.76;47.96;96998.28;5017264;28;20065;-64
2021/09/24 10:42:28;;;;;;;14.98;8.73;;;;;;;24.68;50.54;96993.06;5013019;28;20048;-64
2021/09/24 10:45:15;;;;;;;;;;;;;;;25.12;50.29;96990.31;5009585;28;20049;-63
2021/09/24 10:48:21;;;;;;;10.45;7.78;;;;;;;24.69;51.50;96991.84;5013107;28;19922;-64
2021/09/24 10:51:07;;;;;;;10.27;7.05;;;;;;;25.62;48.95;96998.06;4994468;28;20172;-64
2021/09/24 10:53:53;;;;;;;11.07;7.07;;;;;;;25.56;49.06;96993.06;5015878;28;20053;-64
2021/09/24 10:56:39;;;;;;;10.65;7.88;;;;;;;24.75;51.08;96984.41;5015941;28;20550;-64
2021/09/24 10:59:29;;;;;;;14.68;7.68;;;;;;;24.56;50.06;96977.09;5012361;28;20053;-63
2021/09/24 11:02:37;;;;;;;10.88;7.38;;;;;;;24.76;50.83;96980.41;5010303;28;20049;-63
2021/09/24 11:05:54;;;;;;;11.07;7.15;;;;;;;25.08;50.06;96975.63;5008576;28;20053;-62
2021/09/24 11:08:44;;;;;;;12.10;5.57;;;;;;;25.12;49.35;96967.09;4997707;28;20497;-63
2021/09/24 11:11:36;;;;;;;10.23;6.55;;;;;;;24.43;51.74;96975.13;5012668;28;20646;-64
2021/09/24 11:14:42;;;;;;;8.50;5.20;;;;;;;24.46;50.25;96962.22;5007039;28;20062;-63
2021/09/24 11:17:48;;;;;;;7.68;5.68;;;;;;;24.48;47.95;96968.16;5013554;28;20050;-65
2021/09/24 11:20:36;;;;;;;8.10;5.07;;;;;;;24.33;48.47;96965.06;5011258;28;20038;-65
2021/09/24 11:23:33;;;;;;;8.07;4.93;;;;;;;24.78;48.15;96958.31;5008961;28;20838;-64
2021/09/24 11:26:25;;;;;;;8.70;5.07;;;;;;;25.52;45.67;96960.81;5007998;28;20048;-65
2021/09/24 11:29:13;;;;;;;6.93;4.95;;;;;;;24.88;46.31;96956.34;5010821;28;20046;-64
2021/09/24 11:31:59;;;;;;;7.13;4.82;;;;;;;24.45;48.48;96952.25;5009862;28;20072;-65
2021/09/24 11:34:48;;;;;;;7.28;4.80;;;;;;;25.82;45.36;96950.00;5012501;28;20049;-64
2021/09/24 11:37:37;;;;;;;6.88;4.00;;;;;;;26.12;45.16;96943.56;5012505;28;20050;-65
2021/09/24 11:40:25;;;;;;;;;;;;;;;26.05;44.28;96949.47;4993370;28;20833;-64
2021/09/24 11:43:12;;;;;;;7.60;4.53;;;;;;;24.90;44.86;96945.50;5003192;28;19920;-65
2021/09/24 11:46:08;;;;;;;6.28;4.15;;;;;;;25.90;43.67;96945.66;5004412;28;20132;-65
2021/09/24 11:48:53;;;;;;;11.75;5.70;;;;;;;25.44;43.80;96931.47;5008594;28;20615;-62
2021/09/24 11:51:39;;;;;;;6.07;4.57;;;;;;;24.70;45.08;96934.59;5010084;28;20505;-64
2021/09/24 11:54:26;;;;;;;6.88;4.72;;;;;;;25.19;43.89;96931.19;5005418;28;20517;-64
2021/09/24 11:57:16;;;;;;;6.18;4.47;;;;;;;25.45;44.88;96924.63;5006738;28;20044;-64
2021/09/24 12:00:04;;;;;;;6.03;4.20;;;;;;;25.58;43.03;96925.28;5006891;28;20146;-64
2021/09/24 12:03:08;;;;;;;6.60;3.97;;;;;;;25.08;44.71;96924.41;5011622;28;20046;-65
2021/09/24 12:06:13;;;;;;;6.47;4.15;;;;;;;24.63;46.93;96926.44;5009273;28;20049;-63
2021/09/24 12:09:03;;;;;;;6.07;4.40;;;;;;;24.73;46.69;96925.28;5013121;28;20128;-63
2021/09/24 12:11:52;;;;;;;5.28;3.95;;;;;;;24.50;46.29;96918.06;5015689;28;20050;-66
2021/09/24 12:14:38;;;;;;;5.38;4.03;;;;;;;24.80;45.77;96925.03;5013956;28;20103;-64
2021/09/24 12:17:29;;;;;;;7.55;4.05;;;;;;;24.77;45.40;96913.94;5003397;28;20960;-63
2021/09/24 12:20:24;;;;;;;7.43;3.58;;;;;;;24.59;44.22;96911.81;5007406;28;20115;-63
2021/09/24 12:23:10;;;;;;;6.07;3.80;;;;;;;24.46;45.05;96914.63;5008238;28;20076;-64
2021/09/24 12:25:58;;;;;;;10.50;4.47;;;;;;;23.62;46.40;96909.44;5015350;28;20052;-65
2021/09/24 12:29:02;;;;;;;7.32;4.22;;;;;;;23.74;46.66;96908.66;5013563;28;20053;-65
2021/09/24 12:31:51;;;;;;;4.93;3.53;;;;;;;23.37;46.14;96899.06;5015712;28;20053;-65
2021/09/24 12:34:42;;;;;;;4.60;3.57;;;;;;;23.45;46.68;96892.78;5015472;28;20060;-63
2021/09/24 12:37:36;;;;;;;6.55;4.40;;;;;;;23.56;47.14;96894.47;5008187;28;21120;-63
2021/09/24 12:40:22;;;;;;;6.38;3.85;;;;;;;23.50;46.57;96891.47;5006094;28;20057;-65
2021/09/24 12:43:08;;;;;;;6.05;4.15;;;;;;;23.07;47.54;96890.78;5005936;28;20519;-64
2021/09/24 12:45:54;;;;;;;5.15;3.83;;;;;;;23.28;48.12;96880.16;5012643;28;20041;-65
2021/09/24 12:48:44;;;;;;;7.18;4.10;;;;;;;23.10;46.87;96875.13;5012595;28;20045;-64
2021/09/24 12:51:29;;;;;;;6.20;3.88;;;;;;;23.16;47.46;96880.97;5015332;28;20118;-63